Time;durP1;ratioP1;P1;durP2;ratioP2;P2;SDS_P1;SDS_P2;PMS_P1;PMS_P2;Temp;Humidity;BMP_temperature;BMP_pressure;BME280_temperature;BME280_humidity;BME280_pressure;Samples;Min_cycle;Max_cycle;Signal;HPM_P1;HPM_P2
2023/08/07 00:00:21;;;;;;;10.00;3.22;;;13.30;99.90;;;;;;5032482;28;20212;-47
2023/08/07 00:02:47;;;;;;;9.98;3.20;;;13.20;99.90;;;;;;5032984;28;20207;-48
2023/08/07 00:05:12;;;;;;;8.00;2.65;;;13.10;99.90;;;;;;5032664;28;20202;-46
2023/08/07 00:07:38;;;;;;;15.55;3.60;;;13.20;99.90;;;;;;5032436;28;20179;-46
2023/08/07 00:10:04;;;;;;;9.82;3.22;;;13.00;99.90;;;;;;5032267;28;20641;-47
2023/08/07 00:12:29;;;;;;;14.07;3.53;;;13.20;99.90;;;;;;5032179;28;20215;-47
2023/08/07 00:14:55;;;;;;;15.25;3.47;;;13.00;99.90;;;;;;5032322;28;20174;-47
2023/08/07 00:17:20;;;;;;;9.32;3.33;;;13.00;99.90;;;;;;5025640;28;20644;-49
2023/08/07 00:19:46;;;;;;;12.57;3.28;;;13.10;99.90;;;;;;5032226;28;20650;-46
2023/08/07 00:22:11;;;;;;;11.35;3.13;;;13.00;99.90;;;;;;5032073;28;20532;-46
2023/08/07 00:24:37;;;;;;;11.07;3.60;;;13.00;99.90;;;;;;5031973;28;20199;-46
2023/08/07 00:27:03;;;;;;;3.75;2.53;;;12.90;99.90;;;;;;5032014;28;20175;-46
2023/08/07 00:29:28;;;;;;;9.23;3.70;;;13.10;99.90;;;;;;5031810;28;20171;-48
2023/08/07 00:31:54;;;;;;;9.25;4.22;;;13.10;99.90;;;;;;5031628;28;20174;-46
2023/08/07 00:34:20;;;;;;;12.38;3.35;;;13.10;99.90;;;;;;5031819;28;20178;-46
2023/08/07 00:36:45;;;;;;;9.27;4.03;;;12.90;99.90;;;;;;5032364;28;20167;-47
2023/08/07 00:39:11;;;;;;;7.65;3.42;;;12.90;99.90;;;;;;5031891;28;20643;-47
2023/08/07 00:41:36;;;;;;;8.23;3.33;;;12.90;99.90;;;;;;5031815;28;20716;-46
2023/08/07 00:44:02;;;;;;;9.95;2.92;;;13.00;99.90;;;;;;5031540;28;20171;-48
2023/08/07 00:46:29;;;;;;;13.70;3.38;;;12.90;99.90;;;;;;5031451;28;20631;-46
2023/08/07 00:48:56;;;;;;;9.63;3.25;;;13.00;99.90;;;;;;5031647;28;20171;-46
2023/08/07 00:51:23;;;;;;;10.18;2.45;;;13.00;99.90;;;;;;5031610;28;20202;-46
2023/08/07 00:53:49;;;;;;;11.73;3.40;;;12.90;99.90;;;;;;5031535;28;20172;-46
2023/08/07 00:56:15;;;;;;;8.35;2.72;;;13.00;99.90;;;;;;5032113;28;20174;-46
2023/08/07 00:58:41;;;;;;;13.95;3.63;;;13.00;99.90;;;;;;5031513;28;20171;-46
2023/08/07 01:01:07;;;;;;;12.10;4.05;;;13.00;99.90;;;;;;5031717;28;20750;-46
2023/08/07 01:03:32;;;;;;;7.72;3.00;;;13.00;99.90;;;;;;5031544;28;20171;-46
2023/08/07 01:05:58;;;;;;;9.18;3.08;;;12.90;99.90;;;;;;5031599;28;20215;-46
2023/08/07 01:08:25;;;;;;;11.27;3.80;;;12.90;99.90;;;;;;5031503;28;20163;-46
2023/08/07 01:10:56;;;;;;;12.70;4.40;;;12.90;99.90;;;;;;5031204;28;20183;-46
2023/08/07 01:13:32;;;;;;;12.98;3.22;;;13.00;99.90;;;;;;5030960;28;20215;-47
2023/08/07 01:16:02;;;;;;;9.25;3.28;;;13.00;99.90;;;;;;5030444;28;20208;-46
2023/08/07 01:18:29;;;;;;;16.90;3.67;;;13.00;99.90;;;;;;5031063;28;20175;-46
2023/08/07 01:20:55;;;;;;;11.48;4.13;;;12.90;99.90;;;;;;5031436;28;20555;-51
2023/08/07 01:23:21;;;;;;;14.52;3.65;;;12.90;99.90;;;;;;5031021;28;20164;-48
2023/08/07 01:25:46;;;;;;;13.27;3.25;;;12.90;99.90;;;;;;5030866;28;20618;-46
2023/08/07 01:28:42;;;;;;;14.50;3.78;;;13.00;99.90;;;;;;5031387;28;20167;-49
2023/08/07 01:31:14;;;;;;;13.65;3.60;;;13.10;99.90;;;;;;5030707;28;20715;-50
2023/08/07 01:33:57;;;;;;;10.15;3.20;;;13.00;99.90;;;;;;5030713;28;20206;-50
2023/08/07 01:36:24;;;;;;;13.43;4.38;;;12.90;99.90;;;;;;5030969;28;20603;-46
2023/08/07 01:38:52;;;;;;;10.45;2.85;;;13.10;99.90;;;;;;5030974;28;20163;-46
2023/08/07 01:41:18;;;;;;;9.32;3.45;;;13.10;99.90;;;;;;5030310;28;20233;-46
2023/08/07 01:43:43;;;;;;;12.73;3.25;;;13.00;99.90;;;;;;5029362;28;20175;-47
2023/08/07 01:46:10;;;;;;;9.45;3.47;;;13.10;99.90;;;;;;5030773;28;20721;-46
2023/08/07 01:48:36;;;;;;;13.05;3.53;;;13.10;99.90;;;;;;5030810;28;20170;-46
2023/08/07 01:51:01;;;;;;;10.43;3.47;;;13.10;99.90;;;;;;5030872;28;20175;-52
2023/08/07 01:53:27;;;;;;;16.55;4.30;;;13.10;99.90;;;;;;5031132;28;20221;-48
2023/08/07 01:55:52;;;;;;;10.27;3.25;;;13.00;99.90;;;;;;5030797;28;20163;-53
2023/08/07 01:58:18;;;;;;;9.93;3.47;;;13.10;99.90;;;;;;5030840;28;20183;-53
2023/08/07 02:00:43;;;;;;;15.38;3.60;;;13.10;99.90;;;;;;5030926;28;20170;-53
2023/08/07 02:03:09;;;;;;;10.85;3.03;;;13.10;99.90;;;;;;5030832;28;20172;-52
2023/08/07 02:05:34;;;;;;;7.32;2.80;;;13.10;99.90;;;;;;5030693;28;20203;-53
2023/08/07 02:08:00;;;;;;;9.40;3.78;;;13.10;99.90;;;;;;5030874;28;20167;-47
2023/08/07 02:10:26;;;;;;;5.85;2.95;;;13.20;99.90;;;;;;5030885;28;20258;-46
2023/08/07 02:12:51;;;;;;;13.60;3.55;;;13.10;99.90;;;;;;5028820;28;20310;-46
2023/08/07 02:15:17;;;;;;;13.88;3.38;;;13.10;99.90;;;;;;5030739;28;20167;-46
2023/08/07 02:17:42;;;;;;;8.57;2.60;;;13.10;99.90;;;;;;5030987;28;20160;-46
2023/08/07 02:20:09;;;;;;;14.02;3.40;;;13.10;99.90;;;;;;5030540;28;20717;-46
2023/08/07 02:22:34;;;;;;;12.05;3.72;;;13.00;99.90;;;;;;5030294;28;20171;-45
2023/08/07 02:25:00;;;;;;;11.45;3.13;;;13.10;99.90;;;;;;5030469;28;20211;-46
2023/08/07 02:27:25;;;;;;;12.27;3.85;;;13.10;99.90;;;;;;5030736;28;20221;-46
2023/08/07 02:29:51;;;;;;;12.00;4.07;;;12.90;99.90;;;;;;5030468;28;20178;-53
2023/08/07 02:32:17;;;;;;;13.23;3.45;;;12.80;99.90;;;;;;5030435;28;20250;-48
2023/08/07 02:34:43;;;;;;;12.73;4.20;;;12.90;99.90;;;;;;5030712;28;20243;-46
2023/08/07 02:37:09;;;;;;;13.02;3.50;;;12.90;99.90;;;;;;5030642;28;20243;-46
2023/08/07 02:39:34;;;;;;;10.82;3.50;;;12.90;99.90;;;;;;5030298;28;20915;-46
2023/08/07 02:42:00;;;;;;;10.32;3.50;;;12.80;99.90;;;;;;5028215;28;20206;-46
2023/08/07 02:44:25;;;;;;;10.82;3.25;;;12.80;99.90;;;;;;5010552;28;20226;-47
2023/08/07 02:46:51;;;;;;;11.52;3.33;;;12.80;99.90;;;;;;5010565;28;20254;-46
2023/08/07 02:49:16;;;;;;;11.43;3.25;;;12.90;99.90;;;;;;5010852;28;20194;-46
2023/08/07 02:51:42;;;;;;;10.05;3.38;;;12.90;99.90;;;;;;5010966;28;20222;-46
2023/08/07 02:54:07;;;;;;;10.85;2.92;;;12.80;99.90;;;;;;5013830;28;20526;-46
2023/08/07 02:56:33;;;;;;;12.45;4.18;;;12.90;99.90;;;;;;5013990;28;20183;-46
2023/08/07 02:59:01;;;;;;;14.85;3.83;;;12.80;99.90;;;;;;5014143;28;20176;-46
2023/08/07 03:01:27;;;;;;;7.70;3.53;;;12.90;99.90;;;;;;5013936;28;20246;-47
2023/08/07 03:03:53;;;;;;;9.65;3.55;;;12.90;99.90;;;;;;5014094;28;20168;-46
2023/08/07 03:06:18;;;;;;;12.05;3.95;;;12.80;99.90;;;;;;5013657;28;20609;-46
2023/08/07 03:08:44;;;;;;;12.13;3.55;;;12.80;99.90;;;;;;5014269;28;20192;-46
2023/08/07 03:11:09;;;;;;;10.63;3.88;;;12.90;99.90;;;;;;5013733;28;20172;-47
2023/08/07 03:13:35;;;;;;;17.60;3.50;;;12.80;99.90;;;;;;5028108;28;20219;-46
2023/08/07 03:16:05;;;;;;;7.78;3.20;;;12.70;99.90;;;;;;5015270;28;20180;-46
2023/08/07 03:18:32;;;;;;;10.15;3.30;;;12.90;99.90;;;;;;5013493;28;20160;-46
2023/08/07 03:20:58;;;;;;;17.48;4.10;;;12.80;99.90;;;;;;5013569;28;20179;-53
2023/08/07 03:23:25;;;;;;;10.10;3.45;;;12.70;99.90;;;;;;5013462;28;20199;-49
2023/08/07 03:25:51;;;;;;;8.50;3.00;;;12.80;99.90;;;;;;5013274;28;20257;-52
2023/08/07 03:28:17;;;;;;;10.57;4.03;;;12.90;99.90;;;;;;5013637;28;20530;-47
2023/08/07 03:30:44;;;;;;;10.75;3.88;;;12.70;99.90;;;;;;5013762;28;20168;-54
2023/08/07 03:33:10;;;;;;;10.10;3.28;;;12.80;99.90;;;;;;5013459;28;20298;-49
2023/08/07 03:35:35;;;;;;;10.73;3.53;;;12.80;99.90;;;;;;5013307;28;20753;-54
2023/08/07 03:38:01;;;;;;;9.00;3.72;;;12.80;99.90;;;;;;5013118;28;20175;-53
2023/08/07 03:40:26;;;;;;;9.23;2.95;;;12.80;99.90;;;;;;5013255;28;20164;-54
2023/08/07 03:42:52;;;;;;;7.18;3.47;;;12.70;99.90;;;;;;5021479;28;20186;-46
2023/08/07 03:45:17;;;;;;;11.93;3.28;;;12.80;99.90;;;;;;5032797;28;20238;-48
2023/08/07 03:47:43;;;;;;;11.38;3.22;;;12.80;99.90;;;;;;5033211;28;20238;-47
2023/08/07 03:50:09;;;;;;;6.03;3.05;;;12.70;99.90;;;;;;5032744;28;20249;-47
2023/08/07 03:52:34;;;;;;;10.88;4.13;;;12.70;99.90;;;;;;5032614;28;20164;-47
2023/08/07 03:55:00;;;;;;;8.20;2.97;;;12.70;99.90;;;;;;5032738;28;20623;-49
2023/08/07 03:57:25;;;;;;;9.13;3.35;;;12.70;99.90;;;;;;5032860;28;20643;-47
2023/08/07 03:59:51;;;;;;;7.70;2.78;;;12.70;99.90;;;;;;5032868;28;20191;-49
2023/08/07 04:02:16;;;;;;;8.27;3.17;;;12.60;99.90;;;;;;5032377;28;20573;-48
2023/08/07 04:04:42;;;;;;;5.45;3.05;;;12.70;99.90;;;;;;5032349;28;20206;-46
2023/08/07 04:07:07;;;;;;;10.15;4.18;;;12.60;99.90;;;;;;5032379;28;20647;-47
2023/08/07 04:09:33;;;;;;;10.50;4.00;;;12.80;99.90;;;;;;5031434;28;20523;-51
2023/08/07 04:11:59;;;;;;;10.48;4.15;;;12.70;99.90;;;;;;5031724;28;20234;-50
2023/08/07 04:14:24;;;;;;;11.75;4.15;;;12.60;99.90;;;;;;5031975;28;20203;-54
2023/08/07 04:16:50;;;;;;;11.35;4.00;;;12.80;99.90;;;;;;5032040;28;20159;-50
2023/08/07 04:19:16;;;;;;;12.35;4.22;;;12.60;99.90;;;;;;5031824;28;20536;-49
2023/08/07 04:21:41;;;;;;;10.73;4.40;;;12.70;99.90;;;;;;5017285;28;20176;-50
2023/08/07 04:24:13;;;;;;;9.43;3.22;;;12.80;99.90;;;;;;5011798;28;20654;-50
2023/08/07 04:26:39;;;;;;;10.73;4.18;;;12.60;99.90;;;;;;5011985;28;20251;-49
2023/08/07 04:29:05;;;;;;;9.07;3.53;;;12.60;99.90;;;;;;5012043;28;20252;-52
2023/08/07 04:31:31;;;;;;;10.68;3.33;;;12.70;99.90;;;;;;5011938;28;20164;-55
2023/08/07 04:33:57;;;;;;;9.32;3.50;;;12.70;99.90;;;;;;5012531;28;20175;-52
2023/08/07 04:36:23;;;;;;;10.05;4.90;;;12.70;99.90;;;;;;5011860;28;20646;-49
2023/08/07 04:38:50;;;;;;;7.28;3.40;;;12.60;99.90;;;;;;5011696;28;20171;-48
2023/08/07 04:41:15;;;;;;;7.38;3.20;;;12.70;99.90;;;;;;5012378;28;20171;-49
2023/08/07 04:43:42;;;;;;;14.82;4.22;;;12.80;99.90;;;;;;5029093;28;20576;-53
2023/08/07 04:46:09;;;;;;;14.35;3.40;;;12.80;99.90;;;;;;5031168;28;20202;-53
2023/08/07 04:48:35;;;;;;;9.10;3.80;;;12.80;99.90;;;;;;5031344;28;20164;-46
2023/08/07 04:51:01;;;;;;;10.65;4.07;;;12.80;99.90;;;;;;5031129;28;20250;-48
2023/08/07 04:53:27;;;;;;;9.50;3.58;;;12.80;99.90;;;;;;5031341;28;20171;-47
2023/08/07 04:55:53;;;;;;;9.80;3.75;;;12.80;99.90;;;;;;5031351;28;20171;-46
2023/08/07 04:58:18;;;;;;;10.10;3.83;;;12.90;99.90;;;;;;5031315;28;20176;-46
2023/08/07 05:00:44;;;;;;;12.18;4.22;;;12.90;99.90;;;;;;5031534;28;20207;-46
2023/08/07 05:03:09;;;;;;;11.40;3.95;;;13.00;99.90;;;;;;5031065;28;20179;-47
2023/08/07 05:05:35;;;;;;;11.10;3.53;;;13.00;99.90;;;;;;5030710;28;20225;-48
2023/08/07 05:08:00;;;;;;;9.15;3.05;;;12.90;99.90;;;;;;5031042;28;20167;-50
2023/08/07 05:10:26;;;;;;;12.30;3.35;;;13.00;99.90;;;;;;5030883;28;20179;-54
2023/08/07 05:12:55;;;;;;;9.57;3.28;;;13.10;99.90;;;;;;5017567;28;20199;-48
2023/08/07 05:15:24;;;;;;;12.38;3.40;;;12.90;99.90;;;;;;5010352;28;20581;-46
2023/08/07 05:17:51;;;;;;;11.43;3.78;;;12.90;99.90;;;;;;5011079;28;20251;-51
2023/08/07 05:20:17;;;;;;;12.77;3.83;;;13.00;99.90;;;;;;5011101;28;20521;-50
2023/08/07 05:22:42;;;;;;;6.78;3.83;;;13.00;99.90;;;;;;5011702;28;20176;-47
2023/08/07 05:25:09;;;;;;;9.93;3.17;;;13.00;99.90;;;;;;5011248;28;20216;-46
2023/08/07 05:27:35;;;;;;;8.93;3.15;;;13.00;99.90;;;;;;5011267;28;20245;-46
2023/08/07 05:30:00;;;;;;;9.32;3.17;;;13.10;99.90;;;;;;5011052;28;20199;-47
2023/08/07 05:32:26;;;;;;;11.82;4.00;;;13.00;99.90;;;;;;5010996;28;20617;-46
2023/08/07 05:34:51;;;;;;;6.63;2.83;;;13.10;99.90;;;;;;5010819;28;20218;-47
2023/08/07 05:37:17;;;;;;;11.60;3.40;;;12.90;99.90;;;;;;5009943;28;20263;-47
2023/08/07 05:39:43;;;;;;;13.48;3.78;;;13.10;99.90;;;;;;5011284;28;20164;-48
2023/08/07 05:42:09;;;;;;;7.47;3.45;;;13.10;99.90;;;;;;5011119;28;20172;-46
2023/08/07 05:44:35;;;;;;;8.60;3.30;;;13.10;99.90;;;;;;5011074;28;21183;-46
2023/08/07 05:47:01;;;;;;;7.90;4.03;;;13.00;99.90;;;;;;5010842;28;20540;-46
2023/08/07 05:49:26;;;;;;;6.32;2.67;;;13.00;99.90;;;;;;5010864;28;20168;-48
2023/08/07 05:51:52;;;;;;;6.13;2.88;;;13.10;99.90;;;;;;5010873;28;20271;-47
2023/08/07 05:54:18;;;;;;;14.68;3.35;;;13.10;99.90;;;;;;5010717;28;20181;-47
2023/08/07 05:56:43;;;;;;;11.60;3.97;;;13.00;99.90;;;;;;5011247;28;20172;-47
2023/08/07 05:59:09;;;;;;;4.97;3.03;;;13.10;99.90;;;;;;5010678;28;20186;-53
2023/08/07 06:01:36;;;;;;;8.93;2.85;;;13.10;99.90;;;;;;5010831;28;20237;-53
2023/08/07 06:04:02;;;;;;;9.82;3.08;;;13.00;99.90;;;;;;5010567;28;20635;-54
2023/08/07 06:06:28;;;;;;;12.13;2.67;;;13.10;99.90;;;;;;5010810;28;20715;-55
2023/08/07 06:08:55;;;;;;;4.88;2.63;;;13.00;99.90;;;;;;5010908;28;20186;-56
2023/08/07 06:11:21;;;;;;;4.97;2.83;;;13.10;99.90;;;;;;5010464;28;20179;-52
2023/08/07 06:13:48;;;;;;;14.25;3.45;;;13.10;99.90;;;;;;5029988;28;20183;-46
2023/08/07 06:16:14;;;;;;;9.18;3.83;;;13.10;99.90;;;;;;5030781;28;20202;-55
2023/08/07 06:18:40;;;;;;;12.32;3.30;;;13.10;99.90;;;;;;5030377;28;20198;-55
2023/08/07 06:21:06;;;;;;;11.25;3.05;;;13.00;99.90;;;;;;5030344;28;20170;-55
2023/08/07 06:23:33;;;;;;;7.85;3.10;;;13.00;99.90;;;;;;5030239;28;20262;-49
2023/08/07 06:26:03;;;;;;;7.85;2.85;;;13.00;99.90;;;;;;5030337;28;20207;-55
2023/08/07 06:28:30;;;;;;;8.30;2.90;;;13.00;99.90;;;;;;5034132;28;20650;-54
2023/08/07 06:31:04;;;;;;;10.60;3.10;;;13.00;99.90;;;;;;5033912;28;20207;-55
2023/08/07 06:33:39;;;;;;;12.15;3.53;;;13.00;99.90;;;;;;5033654;28;20712;-53
2023/08/07 06:36:10;;;;;;;5.72;2.35;;;13.00;99.90;;;;;;5033914;28;20175;-55
2023/08/07 06:38:36;;;;;;;8.20;2.78;;;13.10;99.90;;;;;;5034112;28;20175;-54
2023/08/07 06:41:05;;;;;;;14.45;3.50;;;13.10;99.90;;;;;;5033226;28;20597;-53
2023/08/07 06:43:37;;;;;;;7.93;2.80;;;13.10;99.90;;;;;;5032728;28;20175;-55
2023/08/07 06:46:03;;;;;;;7.13;3.50;;;13.20;99.90;;;;;;5033568;28;20199;-55
2023/08/07 06:48:29;;;;;;;9.15;3.50;;;13.10;99.90;;;;;;5033684;28;20232;-50
2023/08/07 06:50:54;;;;;;;8.20;3.10;;;13.20;99.90;;;;;;5033575;28;20623;-55
2023/08/07 06:53:20;;;;;;;9.60;3.22;;;13.10;99.90;;;;;;5033677;28;20170;-53
2023/08/07 06:55:46;;;;;;;10.05;3.05;;;13.10;99.90;;;;;;5033610;28;20258;-55
2023/08/07 06:58:12;;;;;;;8.20;3.20;;;13.10;99.90;;;;;;5034172;28;20175;-55
2023/08/07 07:00:38;;;;;;;6.25;3.45;;;13.10;99.90;;;;;;5032182;28;20654;-55
2023/08/07 07:03:04;;;;;;;7.65;2.90;;;13.20;99.90;;;;;;5033225;28;20575;-55
2023/08/07 07:05:31;;;;;;;8.73;2.90;;;13.10;99.90;;;;;;5033318;28;20207;-54
2023/08/07 07:07:58;;;;;;;6.00;2.63;;;13.10;99.90;;;;;;5033253;28;20552;-54
2023/08/07 07:10:23;;;;;;;9.90;3.47;;;13.20;99.90;;;;;;5033329;28;20250;-55
2023/08/07 07:12:49;;;;;;;9.75;3.25;;;13.10;99.90;;;;;;5018384;28;20306;-54
2023/08/07 07:15:16;;;;;;;10.43;2.67;;;13.20;99.90;;;;;;5013438;28;20172;-51
2023/08/07 07:17:42;;;;;;;7.18;2.83;;;13.10;99.90;;;;;;5013526;28;20520;-52
2023/08/07 07:20:11;;;;;;;8.70;3.22;;;13.10;99.90;;;;;;5012495;28;20172;-46
2023/08/07 07:22:36;;;;;;;8.57;3.20;;;13.20;99.90;;;;;;5012371;28;20176;-47
2023/08/07 07:25:04;;;;;;;10.43;3.28;;;13.30;99.90;;;;;;5012472;28;20200;-46
2023/08/07 07:27:29;;;;;;;8.55;3.00;;;13.30;99.90;;;;;;5013438;28;20164;-48
2023/08/07 07:29:55;;;;;;;6.25;2.30;;;13.40;99.90;;;;;;5013340;28;20638;-47
2023/08/07 07:32:20;;;;;;;5.75;3.22;;;13.40;99.90;;;;;;5013338;28;20164;-46
2023/08/07 07:34:46;;;;;;;8.60;3.17;;;13.30;99.90;;;;;;5013362;28;20192;-47
2023/08/07 07:37:14;;;;;;;12.63;3.38;;;13.50;99.90;;;;;;5013533;28;20279;-47
2023/08/07 07:39:39;;;;;;;10.30;3.58;;;13.50;99.90;;;;;;5013085;28;20222;-47
2023/08/07 07:42:05;;;;;;;6.93;2.17;;;13.60;99.90;;;;;;5021258;28;20179;-52
2023/08/07 07:44:31;;;;;;;5.60;2.67;;;13.50;99.90;;;;;;5032545;28;20199;-53
2023/08/07 07:46:57;;;;;;;7.45;2.92;;;13.40;99.90;;;;;;5032825;28;20519;-47
2023/08/07 07:49:22;;;;;;;9.88;3.40;;;13.60;99.90;;;;;;5032677;28;20242;-46
2023/08/07 07:51:49;;;;;;;5.05;2.67;;;13.70;99.90;;;;;;5032763;28;20182;-46
2023/08/07 07:54:14;;;;;;;9.25;3.10;;;13.70;99.90;;;;;;5032630;28;20246;-46
2023/08/07 07:56:40;;;;;;;12.85;2.97;;;13.80;99.90;;;;;;5033084;28;20258;-52
2023/08/07 07:59:06;;;;;;;6.70;2.35;;;13.90;99.90;;;;;;5032431;28;20167;-56
2023/08/07 08:01:31;;;;;;;5.25;2.55;;;13.90;99.90;;;;;;5032712;28;20191;-48
2023/08/07 08:03:57;;;;;;;4.65;1.83;;;14.00;99.90;;;;;;5032437;28;20164;-47
2023/08/07 08:06:22;;;;;;;8.23;3.28;;;14.10;99.90;;;;;;5032102;28;20211;-53
2023/08/07 08:08:48;;;;;;;6.82;2.40;;;14.20;99.90;;;;;;5032402;28;20216;-52
2023/08/07 08:11:13;;;;;;;7.55;2.47;;;14.20;99.90;;;;;;5031766;28;20171;-51
2023/08/07 08:13:41;;;;;;;4.70;2.28;;;14.10;99.90;;;;;;5032727;28;20290;-55
2023/08/07 08:16:06;;;;;;;11.40;3.55;;;14.10;99.90;;;;;;5032473;28;20183;-55
2023/08/07 08:18:32;;;;;;;6.10;2.63;;;14.30;99.90;;;;;;5032182;28;20171;-51
2023/08/07 08:20:57;;;;;;;10.65;2.60;;;14.20;99.90;;;;;;5032208;28;20627;-56
2023/08/07 08:23:23;;;;;;;7.45;2.72;;;14.30;99.90;;;;;;5032164;28;20632;-55
2023/08/07 08:25:49;;;;;;;5.45;2.38;;;14.30;99.90;;;;;;5032328;28;20221;-55
2023/08/07 08:28:15;;;;;;;15.00;2.95;;;14.30;99.90;;;;;;5032378;28;20169;-55
2023/08/07 08:30:41;;;;;;;6.45;2.80;;;14.30;99.90;;;;;;5031606;28;20167;-52
2023/08/07 08:33:09;;;;;;;10.02;2.45;;;14.40;99.90;;;;;;5031694;28;20163;-51
2023/08/07 08:35:35;;;;;;;5.78;2.58;;;12.00;99.90;;;;;;5031675;28;20558;-53
2023/08/07 08:38:01;;;;;;;8.35;3.33;;;14.70;99.90;;;;;;5031762;28;20171;-54
2023/08/07 08:40:26;;;;;;;7.65;3.45;;;14.80;99.90;;;;;;5030187;28;20171;-55
2023/08/07 08:42:57;;;;;;;7.68;2.70;;;14.90;99.90;;;;;;5014930;28;20227;-55
2023/08/07 08:45:25;;;;;;;8.20;2.63;;;15.00;99.90;;;;;;5012220;28;20219;-55
2023/08/07 08:47:54;;;;;;;6.88;3.00;;;15.20;99.90;;;;;;5011914;28;20172;-55
2023/08/07 08:50:21;;;;;;;7.75;3.10;;;15.30;99.90;;;;;;5011800;28;20164;-54
2023/08/07 08:52:46;;;;;;;4.90;2.40;;;15.30;99.90;;;;;;5011871;28;20179;-54
2023/08/07 08:55:13;;;;;;;6.28;2.45;;;15.40;99.90;;;;;;5012239;28;20168;-54
2023/08/07 08:57:40;;;;;;;9.20;2.78;;;15.50;99.90;;;;;;5012426;28;20172;-48
2023/08/07 09:00:20;;;;;;;11.18;3.13;;;15.60;99.90;;;;;;5010401;28;20543;-55
2023/08/07 09:02:47;;;;;;;4.03;1.88;;;15.50;99.90;;;;;;5011960;28;20171;-52
2023/08/07 09:05:15;;;;;;;10.70;2.72;;;15.50;99.90;;;;;;5011758;28;20214;-55
2023/08/07 09:07:40;;;;;;;4.43;2.60;;;15.40;99.90;;;;;;5012305;28;20183;-48
2023/08/07 09:10:07;;;;;;;11.15;3.55;;;15.40;99.90;;;;;;5011921;28;20164;-54
2023/08/07 09:12:33;;;;;;;9.05;2.65;;;15.60;99.90;;;;;;5027008;28;20230;-49
2023/08/07 09:15:03;;;;;;;8.82;2.60;;;15.80;99.90;;;;;;5011666;28;20282;-53
2023/08/07 09:17:31;;;;;;;7.63;2.80;;;15.70;99.90;;;;;;5011823;28;20230;-55
2023/08/07 09:19:58;;;;;;;8.80;2.38;;;15.80;99.90;;;;;;5011428;28;20183;-50
2023/08/07 09:22:23;;;;;;;4.88;2.35;;;15.90;99.90;;;;;;5010699;28;20195;-47
2023/08/07 09:24:50;;;;;;;6.68;2.47;;;15.90;99.90;;;;;;5011114;28;20227;-53
2023/08/07 09:27:15;;;;;;;6.43;2.70;;;16.00;99.90;;;;;;5011153;28;20522;-51
2023/08/07 09:29:41;;;;;;;9.57;3.10;;;16.20;99.90;;;;;;5011493;28;20176;-53
2023/08/07 09:32:08;;;;;;;11.18;2.65;;;16.30;99.90;;;;;;5011306;28;20182;-46
2023/08/07 09:34:34;;;;;;;10.00;2.80;;;16.30;99.90;;;;;;5011196;28;20163;-52
2023/08/07 09:37:01;;;;;;;4.55;2.28;;;16.40;99.90;;;;;;5010693;28;20179;-50
2023/08/07 09:39:27;;;;;;;4.50;2.13;;;16.50;99.90;;;;;;5011025;28;20163;-46
2023/08/07 09:41:52;;;;;;;5.35;1.83;;;16.30;99.90;;;;;;5018649;28;20186;-49
2023/08/07 09:44:18;;;;;;;4.85;2.13;;;16.40;99.90;;;;;;5030365;28;20210;-46
2023/08/07 09:46:44;;;;;;;4.90;1.92;;;16.50;99.90;;;;;;5030427;28;20175;-44
2023/08/07 09:49:10;;;;;;;4.95;2.00;;;16.30;99.90;;;;;;5030753;28;20179;-44
2023/08/07 09:51:46;;;;;;;10.38;2.60;;;16.30;99.90;;;;;;5030296;28;20167;-47
2023/08/07 09:54:12;;;;;;;6.05;2.80;;;16.30;99.90;;;;;;5031138;28;20221;-44
2023/08/07 09:56:41;;;;;;;6.57;2.60;;;16.50;99.90;;;;;;5031324;28;20179;-44
2023/08/07 09:59:08;;;;;;;6.90;2.63;;;16.60;99.90;;;;;;5030632;28;20179;-44
2023/08/07 10:01:38;;;;;;;4.05;2.17;;;16.80;99.90;;;;;;5031729;28;20526;-45
2023/08/07 10:04:05;;;;;;;6.93;2.42;;;17.00;99.90;;;;;;5034890;28;20282;-44
2023/08/07 10:06:30;;;;;;;6.63;2.40;;;17.20;99.90;;;;;;5034690;28;20211;-44
2023/08/07 10:08:57;;;;;;;7.07;2.08;;;17.40;99.90;;;;;;5034720;28;20262;-45
2023/08/07 10:11:23;;;;;;;4.68;2.25;;;17.70;99.90;;;;;;5027974;28;20172;-44
2023/08/07 10:13:50;;;;;;;9.48;2.10;;;17.70;99.90;;;;;;5014817;28;20186;-45
2023/08/07 10:16:15;;;;;;;9.75;2.55;;;17.70;99.90;;;;;;5014985;28;20506;-44
2023/08/07 10:18:41;;;;;;;7.82;2.25;;;17.90;99.90;;;;;;5015097;28;20175;-44
2023/08/07 10:21:07;;;;;;;10.80;3.15;;;18.00;99.90;;;;;;5014689;28;20507;-44
2023/08/07 10:23:38;;;;;;;6.20;2.58;;;18.00;99.90;;;;;;5013406;28;20207;-44
2023/08/07 10:26:08;;;;;;;6.30;2.00;;;18.00;99.90;;;;;;5014858;28;20215;-44
2023/08/07 10:28:39;;;;;;;8.65;2.08;;;18.20;99.90;;;;;;5014521;28;20160;-45
2023/08/07 10:31:07;;;;;;;6.07;2.30;;;18.10;99.90;;;;;;5014628;28;20188;-44
2023/08/07 10:33:33;;;;;;;4.88;1.95;;;18.20;99.90;;;;;;5014450;28;20179;-44
2023/08/07 10:36:03;;;;;;;4.45;1.80;;;18.40;99.90;;;;;;5013988;28;20172;-44
2023/08/07 10:38:29;;;;;;;4.50;2.00;;;18.40;99.90;;;;;;5014416;28;20652;-47
2023/08/07 10:41:13;;;;;;;6.65;1.77;;;18.40;99.90;;;;;;5015960;28;20172;-46
2023/08/07 10:43:41;;;;;;;5.63;1.90;;;17.80;99.90;;;;;;5034342;28;20288;-47
2023/08/07 10:46:09;;;;;;;4.68;1.92;;;17.60;99.90;;;;;;5034190;28;20222;-46
2023/08/07 10:48:40;;;;;;;6.57;1.70;;;17.50;99.90;;;;;;5034278;28;20529;-46
2023/08/07 10:51:06;;;;;;;7.53;2.38;;;17.40;99.90;;;;;;5034030;28;20175;-46
2023/08/07 10:53:32;;;;;;;8.50;1.90;;;17.90;99.90;;;;;;5034321;28;20198;-46
2023/08/07 10:56:29;;;;;;;4.15;1.70;;;18.00;99.90;;;;;;5034017;28;20164;-46
2023/08/07 10:58:54;;;;;;;12.35;1.98;;;18.20;99.90;;;;;;5033747;28;20176;-46
2023/08/07 11:01:26;;;;;;;5.20;1.70;;;18.40;99.90;;;;;;5033553;28;20183;-47
2023/08/07 11:03:59;;;;;;;7.68;2.22;;;18.20;99.90;;;;;;5033492;28;20206;-48
2023/08/07 11:06:33;;;;;;;7.03;2.28;;;18.50;99.90;;;;;;5033780;28;20207;-48
2023/08/07 11:09:06;;;;;;;2.72;1.75;;;18.30;99.90;;;;;;5033486;28;20237;-46
2023/08/07 11:11:46;;;;;;;6.55;1.85;;;17.90;99.90;;;;;;5033058;28;20168;-46
2023/08/07 11:14:13;;;;;;;4.55;1.63;;;17.60;99.90;;;;;;5032652;28;20174;-53
2023/08/07 11:16:39;;;;;;;6.30;1.92;;;17.50;99.90;;;;;;5033956;28;20159;-54
2023/08/07 11:19:05;;;;;;;4.30;1.98;;;17.50;99.90;;;;;;5033848;28;20171;-53
2023/08/07 11:21:32;;;;;;;4.38;1.77;;;17.90;99.90;;;;;;5033519;28;20171;-55
2023/08/07 11:23:57;;;;;;;10.00;2.10;;;18.10;99.90;;;;;;5033371;28;20689;-53
2023/08/07 11:26:24;;;;;;;3.50;1.70;;;18.40;99.90;;;;;;5033233;28;20207;-53
2023/08/07 11:28:50;;;;;;;5.50;2.00;;;18.70;99.90;;;;;;5033189;28;20213;-52
2023/08/07 11:31:21;;;;;;;3.95;1.92;;;18.80;99.90;;;;;;5033019;28;20576;-49
2023/08/07 11:33:46;;;;;;;4.25;1.92;;;18.90;99.90;;;;;;5033030;28;20198;-51
2023/08/07 11:36:13;;;;;;;5.47;2.00;;;18.80;99.90;;;;;;5032977;28;20184;-46
2023/08/07 11:38:44;;;;;;;6.32;2.20;;;19.30;99.90;;;;;;5033167;28;20178;-45
2023/08/07 11:41:14;;;;;;;5.50;2.00;;;19.50;99.90;;;;;;5026256;28;20180;-52
2023/08/07 11:43:41;;;;;;;5.50;2.40;;;19.40;99.90;;;;;;5013481;28;20771;-47
2023/08/07 11:46:09;;;;;;;3.38;1.95;;;19.60;99.90;;;;;;5012843;28;20259;-49
2023/08/07 11:48:36;;;;;;;12.38;3.08;;;19.10;99.90;;;;;;5012929;28;20168;-46
2023/08/07 11:51:03;;;;;;;11.55;2.47;;;18.70;99.90;;;;;;5011870;28;21184;-46
2023/08/07 11:53:31;;;;;;;6.00;2.35;;;18.70;99.90;;;;;;5013096;28;20183;-46
2023/08/07 11:56:00;;;;;;;10.50;2.78;;;19.00;99.90;;;;;;5011523;28;20649;-48
2023/08/07 11:58:28;;;;;;;5.05;1.85;;;19.30;99.90;;;;;;5012689;28;20214;-46
2023/08/07 12:00:54;;;;;;;5.65;2.20;;;19.60;99.90;;;;;;5012518;28;20243;-46
2023/08/07 12:03:28;;;;;;;5.00;1.83;;;19.40;99.90;;;;;;5012691;28;20175;-49
2023/08/07 12:05:56;;;;;;;4.10;2.28;;;19.40;99.90;;;;;;5012687;28;20210;-46
2023/08/07 12:08:22;;;;;;;5.13;2.33;;;19.30;99.90;;;;;;5012754;28;20187;-46
2023/08/07 12:10:53;;;;;;;8.70;2.85;;;19.40;99.90;;;;;;5015202;28;20642;-47
2023/08/07 12:13:23;;;;;;;8.02;2.22;;;19.70;99.90;;;;;;5030864;28;20215;-47
2023/08/07 12:15:53;;;;;;;4.88;1.95;;;19.70;99.90;;;;;;5031715;28;20167;-47
2023/08/07 12:18:20;;;;;;;5.55;2.00;;;19.60;99.90;;;;;;5031807;28;20163;-47
2023/08/07 12:20:46;;;;;;;4.82;2.28;;;19.40;99.90;;;;;;5031640;28;20688;-46
2023/08/07 12:23:16;;;;;;;8.32;2.13;;;19.50;99.90;;;;;;5031097;28;20168;-47
2023/08/07 12:25:42;;;;;;;4.22;2.15;;;19.20;99.90;;;;;;5031976;28;20207;-47
2023/08/07 12:28:08;;;;;;;6.90;2.58;;;18.70;99.90;;;;;;5032335;28;20178;-55
2023/08/07 12:30:37;;;;;;;7.47;2.20;;;19.20;99.90;;;;;;5031827;28;20171;-52
2023/08/07 12:33:07;;;;;;;3.90;2.03;;;19.60;99.90;;;;;;5031883;28;20658;-56
2023/08/07 12:35:34;;;;;;;3.38;1.95;;;19.60;99.90;;;;;;5031722;28;20174;-54
2023/08/07 12:38:02;;;;;;;9.90;2.47;;;20.00;99.90;;;;;;5031729;28;20274;-55
2023/08/07 12:40:28;;;;;;;5.25;2.53;;;20.10;99.90;;;;;;5029137;28;20241;-55